createdAt,value
2023-04-21T06:06:13.310Z,15.50
2023-04-21T06:08:42.960Z,14.40
2023-04-21T06:11:11.225Z,14.30
2023-04-21T06:13:40.459Z,14.60
2023-04-21T06:16:10.653Z,14.70
2023-04-21T06:18:38.942Z,14.70
2023-04-21T06:21:07.413Z,14.60
2023-04-21T06:23:35.682Z,14.60
2023-04-21T06:26:07.649Z,14.70
2023-04-21T06:28:39.227Z,14.40
2023-04-21T06:31:08.858Z,14.70
2023-04-21T06:33:37.850Z,14.70
2023-04-21T06:36:07.319Z,14.90
2023-04-21T06:38:35.582Z,15.00
2023-04-21T07:40:39.180Z,15.20
2023-04-21T08:20:26.722Z,14.00
2023-04-21T08:22:55.064Z,13.90
2023-04-21T08:25:24.886Z,13.90
2023-04-21T08:27:53.208Z,14.40
2023-04-21T08:30:21.909Z,14.30
2023-04-21T08:32:50.459Z,14.60
2023-04-21T08:35:18.878Z,14.20
2023-04-21T08:37:47.269Z,14.70
2023-04-21T08:40:15.623Z,14.90
2023-04-21T08:52:44.145Z,15.20
2023-04-21T10:45:20.043Z,16.20
2023-04-21T10:47:51.433Z,16.70
2023-04-21T11:08:14.059Z,16.30
2023-04-21T11:11:00.273Z,16.20
2023-04-21T11:13:33.599Z,16.50
2023-04-21T11:16:06.877Z,16.60
2023-04-21T11:31:33.103Z,16.40
2023-04-21T11:34:02.039Z,16.30
2023-04-21T11:36:30.793Z,15.80
2023-04-21T11:46:27.045Z,15.90
2023-04-21T11:49:04.916Z,16.00
2023-04-21T11:51:37.818Z,16.20
2023-04-21T11:54:08.621Z,16.10
2023-04-21T11:56:38.509Z,16.30
2023-04-21T11:59:12.686Z,16.40
2023-04-21T12:01:48.332Z,16.50
2023-04-21T12:04:20.010Z,16.80
2023-04-21T12:06:56.241Z,16.90
2023-04-21T12:09:24.480Z,17.00
2023-04-21T12:11:54.383Z,17.00
2023-04-21T12:14:24.296Z,16.60
2023-04-21T12:16:55.625Z,16.80
2023-04-21T12:19:26.758Z,16.50
2023-04-21T12:21:56.460Z,16.70
2023-04-21T12:24:24.950Z,16.50
2023-04-21T12:26:53.246Z,17.00
2023-04-21T12:29:21.691Z,17.00
2023-04-21T12:36:48.513Z,17.10
2023-04-21T12:39:17.411Z,17.40
2023-04-21T12:41:47.449Z,17.60
2023-04-21T12:44:15.940Z,17.40
2023-04-21T12:46:46.005Z,17.40
2023-04-21T12:49:15.727Z,17.50
2023-04-21T12:51:44.325Z,17.30
2023-04-21T12:54:14.484Z,17.20
2023-04-21T12:56:43.688Z,16.90
2023-04-21T12:59:12.750Z,17.10
2023-04-21T13:01:42.506Z,17.10
2023-04-21T13:04:11.255Z,17.20
2023-04-21T13:06:40.679Z,17.30
2023-04-21T13:09:08.925Z,17.30
2023-04-21T13:11:38.583Z,17.20
2023-04-21T13:14:06.841Z,17.60
2023-04-21T13:16:35.082Z,17.50
2023-04-21T13:19:04.185Z,17.90
2023-04-21T13:21:32.764Z,17.90
2023-04-21T13:24:02.212Z,17.90
2023-04-21T13:26:33.592Z,17.80
2023-04-21T13:29:03.734Z,17.60
2023-04-21T13:31:32.456Z,17.90
2023-04-21T13:34:01.841Z,17.90
2023-04-21T13:36:30.473Z,18.00
2023-04-21T13:39:00.768Z,18.70
2023-04-21T13:41:29.032Z,18.20
2023-04-21T13:43:57.393Z,18.30
2023-04-21T13:46:27.134Z,18.40
2023-04-21T13:48:55.525Z,18.40
2023-04-21T13:51:23.798Z,18.30
2023-04-21T13:53:52.099Z,18.20
2023-04-21T13:56:20.331Z,17.80
2023-04-21T13:58:48.733Z,18.20
2023-04-21T14:01:19.164Z,18.20
2023-04-21T14:03:50.844Z,18.60
2023-04-21T14:06:19.343Z,18.00
2023-04-21T14:08:47.584Z,17.90
2023-04-21T14:11:15.931Z,18.00
2023-04-21T14:13:56.134Z,18.10
2023-04-21T14:16:32.470Z,17.80
2023-04-21T14:19:02.164Z,17.70
2023-04-21T14:21:31.033Z,18.00
2023-04-21T14:23:59.447Z,18.70
2023-04-21T14:26:27.795Z,18.90
2023-04-21T14:28:56.457Z,18.80
2023-04-21T14:31:24.745Z,18.80
2023-04-21T14:33:53.023Z,18.70
2023-04-21T14:36:22.870Z,18.70
2023-04-21T14:38:51.654Z,18.50
2023-04-21T14:41:19.989Z,18.40
2023-04-21T14:43:49.873Z,18.40
2023-04-21T14:46:18.264Z,18.60
2023-04-21T14:48:46.811Z,18.70
2023-04-21T14:51:15.093Z,18.80
2023-04-21T14:53:44.712Z,18.70
2023-04-21T14:56:12.976Z,18.90
2023-04-21T14:58:41.264Z,18.80
2023-04-21T15:01:10.602Z,19.00
2023-04-21T15:03:39.047Z,19.00
2023-04-21T15:06:07.950Z,18.80
2023-04-21T15:08:36.422Z,18.80
2023-04-21T15:11:06.472Z,18.80
2023-04-21T15:13:35.221Z,18.70
2023-04-21T15:16:03.452Z,18.80
2023-04-21T15:18:31.698Z,18.80
2023-04-21T15:20:59.971Z,18.60
2023-04-21T15:23:29.190Z,18.40
2023-04-21T15:25:58.048Z,18.60
2023-04-21T15:28:27.735Z,18.60
2023-04-21T15:30:56.101Z,18.40
2023-04-21T15:33:24.367Z,18.30
2023-04-21T15:35:52.586Z,18.50
2023-04-21T15:38:21.222Z,18.80
2023-04-21T15:41:00.164Z,18.70
2023-04-21T15:43:31.055Z,18.50
2023-04-21T15:45:59.493Z,18.70
2023-04-21T15:48:27.870Z,19.00
2023-04-21T15:50:57.248Z,19.30
2023-04-21T15:53:26.009Z,19.40
2023-04-21T15:55:54.230Z,19.30
2023-04-21T15:58:22.501Z,19.40
2023-04-21T16:00:52.402Z,19.10
2023-04-21T16:03:21.626Z,18.90
2023-04-21T16:05:50.464Z,18.70
2023-04-21T16:08:19.059Z,18.70
2023-04-21T16:10:47.669Z,18.90
2023-04-21T16:13:16.082Z,19.00
2023-04-21T16:15:44.449Z,19.10
2023-04-21T16:18:14.171Z,18.90
2023-04-21T16:20:43.929Z,18.90
2023-04-21T16:23:12.423Z,18.80
2023-04-21T16:25:40.880Z,18.90
2023-04-21T16:28:09.852Z,18.90
2023-04-21T16:30:38.618Z,18.80
2023-04-21T16:33:06.892Z,18.70
2023-04-21T16:35:36.563Z,18.70
2023-04-21T16:38:04.997Z,18.50
2023-04-21T16:40:34.197Z,18.50
2023-04-21T16:43:02.497Z,18.50
2023-04-21T16:45:31.003Z,18.60
2023-04-21T16:47:59.345Z,18.50
2023-04-21T16:50:27.832Z,18.40
2023-04-21T16:52:57.473Z,18.20
2023-04-21T16:55:25.944Z,18.40
2023-04-21T16:57:54.246Z,18.60
2023-04-21T17:00:22.534Z,18.50
2023-04-21T17:02:50.898Z,18.50
2023-04-21T17:05:19.447Z,18.70
2023-04-21T17:07:48.335Z,18.90
2023-04-21T17:10:18.106Z,18.90
2023-04-21T17:12:46.414Z,18.60
2023-04-21T17:15:15.394Z,18.30
2023-04-21T17:17:47.159Z,17.70
2023-04-21T17:20:16.118Z,17.60
2023-04-21T17:22:47.238Z,17.70
2023-04-21T17:25:16.878Z,18.40
2023-04-21T17:27:46.358Z,17.90
2023-04-21T17:30:15.295Z,18.00
2023-04-21T17:32:43.757Z,18.60
2023-04-21T17:35:12.127Z,19.00
2023-04-21T17:37:40.975Z,18.70
2023-04-21T17:40:11.766Z,19.10
2023-04-21T17:42:41.753Z,19.20
2023-04-21T17:45:10.802Z,19.30
2023-04-21T17:47:39.185Z,19.20
2023-04-21T17:50:09.885Z,19.40
2023-04-21T17:52:38.142Z,18.90
2023-04-21T17:55:07.394Z,18.80
2023-04-21T17:57:36.242Z,19.00
2023-04-21T18:00:08.688Z,18.80
2023-04-21T18:02:37.165Z,18.90
2023-04-21T18:05:06.715Z,19.00
2023-04-21T18:07:35.036Z,18.80
2023-04-21T18:10:03.385Z,19.00
2023-04-21T18:12:31.709Z,19.00
2023-04-21T18:14:59.930Z,19.00
2023-04-21T18:17:29.514Z,19.00
2023-04-21T18:19:57.762Z,19.00
2023-04-21T18:22:26.005Z,19.10
2023-04-21T18:24:54.283Z,19.20
2023-04-21T18:27:22.514Z,19.00
2023-04-21T18:29:51.328Z,19.00
2023-04-21T18:32:19.682Z,18.90
2023-04-21T18:34:49.401Z,18.90
2023-04-21T18:37:18.471Z,18.90
2023-04-21T18:39:46.679Z,18.80
2023-04-21T18:42:14.929Z,18.90
2023-04-21T18:44:43.229Z,18.80
2023-04-21T18:47:12.043Z,18.80
2023-04-21T18:49:41.026Z,18.80
2023-04-21T18:52:10.855Z,18.80
2023-04-21T18:54:39.261Z,18.80
2023-04-21T18:57:08.660Z,18.80
2023-04-21T18:59:36.977Z,18.80
2023-04-21T19:02:07.460Z,18.70
2023-04-21T19:04:36.263Z,18.80
2023-04-21T19:07:08.315Z,18.80
2023-04-21T19:09:37.966Z,18.90
2023-04-21T19:12:06.560Z,19.00
2023-04-21T19:14:45.655Z,19.00
2023-04-21T19:17:15.605Z,19.00
2023-04-21T19:19:44.201Z,19.00
2023-04-21T19:22:12.533Z,18.90
2023-04-21T19:24:42.110Z,19.00
2023-04-21T19:27:10.522Z,19.00
2023-04-21T19:29:38.789Z,19.00
2023-04-21T19:32:07.395Z,19.00
2023-04-21T19:34:36.232Z,19.00
2023-04-21T19:37:04.630Z,19.00
2023-04-21T19:39:32.896Z,18.20
2023-04-21T19:42:02.622Z,16.60
2023-04-21T19:44:31.271Z,15.50
2023-04-21T19:56:53.982Z,14.60
2023-04-21T19:59:23.637Z,13.60
2023-04-21T20:01:51.946Z,14.10
2023-04-21T20:04:20.383Z,14.70
2023-04-21T20:11:45.879Z,14.50
2023-04-21T20:14:14.096Z,15.60
2023-04-21T20:16:46.229Z,14.40
2023-04-21T20:19:17.169Z,15.50
2023-04-21T20:21:45.588Z,15.10
2023-04-21T20:24:13.782Z,16.00
2023-04-21T20:26:42.027Z,16.30
2023-04-21T20:29:10.582Z,17.20
2023-04-21T20:31:38.851Z,17.60
2023-04-21T20:34:08.729Z,17.60
2023-04-21T20:36:37.200Z,17.20
2023-04-21T20:39:06.524Z,16.50
2023-04-21T20:41:34.813Z,16.20
2023-04-21T20:44:03.356Z,15.50
2023-04-21T20:46:31.677Z,16.00
2023-04-21T20:48:59.920Z,16.00
2023-04-21T20:51:29.493Z,15.30
2023-04-21T20:53:57.694Z,15.50
2023-04-21T20:56:26.332Z,16.40
2023-04-21T20:58:54.543Z,16.10
2023-04-21T21:01:23.683Z,16.80
2023-04-21T21:03:52.453Z,17.10
2023-04-21T21:06:21.652Z,17.30
2023-04-21T21:08:51.398Z,17.60
2023-04-21T21:11:19.909Z,17.80
2023-04-21T21:13:48.107Z,17.90
2023-04-21T21:16:16.413Z,17.80
2023-04-21T21:18:44.753Z,17.90
2023-04-21T21:21:12.955Z,17.70
2023-04-21T21:23:42.373Z,17.70
2023-04-21T21:26:12.515Z,17.80
2023-04-21T21:28:40.832Z,17.80
2023-04-21T21:31:09.085Z,17.80
2023-04-21T21:33:37.328Z,17.50
2023-04-21T21:36:06.468Z,17.70
2023-04-21T21:38:34.739Z,17.70
2023-04-21T21:41:02.968Z,17.10
2023-04-21T21:43:33.304Z,17.30
2023-04-21T21:46:01.566Z,17.40
2023-04-21T21:48:29.990Z,17.60
2023-04-21T21:50:58.259Z,17.60
2023-04-21T21:53:26.671Z,17.60
2023-04-21T21:55:55.077Z,17.60
2023-04-21T21:58:23.365Z,17.50
2023-04-21T22:00:52.963Z,17.60
2023-04-21T22:03:22.002Z,17.60
2023-04-21T22:05:50.431Z,17.60
2023-04-21T22:08:18.680Z,17.50
2023-04-21T22:10:47.114Z,17.50
2023-04-21T22:13:15.364Z,17.60
2023-04-21T22:15:43.612Z,17.60
2023-04-21T22:18:13.231Z,17.50
2023-04-21T22:20:41.513Z,17.50
2023-04-21T22:23:09.734Z,17.50
2023-04-21T22:25:37.937Z,17.60
2023-04-21T22:28:06.187Z,17.40
2023-04-21T22:30:34.449Z,17.20
2023-04-21T22:33:02.891Z,17.30
2023-04-21T22:35:32.663Z,17.40
2023-04-21T22:38:00.872Z,17.40
2023-04-21T22:40:29.357Z,17.40
2023-04-21T22:42:57.655Z,17.40
2023-04-21T22:45:26.601Z,17.40
2023-04-21T22:47:55.889Z,17.40
2023-04-21T22:50:24.241Z,17.40
2023-04-21T22:52:53.895Z,17.40
2023-04-21T22:55:22.220Z,17.30
2023-04-21T22:57:50.667Z,17.40
2023-04-21T23:00:19.133Z,17.20
2023-04-21T23:02:47.534Z,17.10
2023-04-21T23:05:15.998Z,17.20
2023-04-21T23:07:44.249Z,17.30
2023-04-21T23:10:13.867Z,17.30
2023-04-21T23:12:42.342Z,17.30
2023-04-21T23:15:11.505Z,17.20
2023-04-21T23:17:39.820Z,17.30
2023-04-21T23:20:10.406Z,17.40
2023-04-21T23:22:38.703Z,17.20
2023-04-21T23:25:08.757Z,17.20
2023-04-21T23:27:38.382Z,17.20
2023-04-21T23:30:08.319Z,16.90
2023-04-21T23:32:36.704Z,16.80
2023-04-21T23:35:05.404Z,16.90
2023-04-21T23:37:33.637Z,16.90
2023-04-21T23:40:02.020Z,17.10
2023-04-21T23:42:30.396Z,17.10
2023-04-21T23:44:59.949Z,17.00
2023-04-21T23:47:28.207Z,17.00
2023-04-21T23:49:56.431Z,17.00
2023-04-21T23:52:24.703Z,16.90
2023-04-21T23:54:52.931Z,17.00
2023-04-21T23:57:21.308Z,16.90
2023-04-21T23:59:49.658Z,16.70
